sensor_id;sensor_type;location;lat;lon;timestamp;temperature;humidity
12386;DHT22;6257;57.634;18.310;2023-12-14T00:01:54;0.20;99.90
12386;DHT22;6257;57.634;18.310;2023-12-14T00:04:21;0.30;99.90
12386;DHT22;6257;57.634;18.310;2023-12-14T00:06:48;1.30;99.90
12386;DHT22;6257;57.634;18.310;2023-12-14T00:09:15;0.10;99.90
12386;DHT22;6257;57.634;18.310;2023-12-14T00:11:42;0.10;99.90
12386;DHT22;6257;57.634;18.310;2023-12-14T00:14:09;0.10;99.90
12386;DHT22;6257;57.634;18.310;2023-12-14T00:16:37;0.20;99.90
12386;DHT22;6257;57.634;18.310;2023-12-14T00:19:05;0.20;99.90
12386;DHT22;6257;57.634;18.310;2023-12-14T00:21:32;0.20;99.90
12386;DHT22;6257;57.634;18.310;2023-12-14T00:26:26;0.10;99.90
12386;DHT22;6257;57.634;18.310;2023-12-14T00:28:53;1.30;99.90
12386;DHT22;6257;57.634;18.310;2023-12-14T00:31:20;0.10;99.90
12386;DHT22;6257;57.634;18.310;2023-12-14T00:33:48;0.50;99.90
12386;DHT22;6257;57.634;18.310;2023-12-14T00:36:18;1.30;99.90
12386;DHT22;6257;57.634;18.310;2023-12-14T00:38:45;0.30;99.90
12386;DHT22;6257;57.634;18.310;2023-12-14T00:41:13;0.10;99.90
12386;DHT22;6257;57.634;18.310;2023-12-14T00:43:40;1.30;99.90
12386;DHT22;6257;57.634;18.310;2023-12-14T00:46:07;0.10;99.90
12386;DHT22;6257;57.634;18.310;2023-12-14T00:48:34;0.20;99.90
12386;DHT22;6257;57.634;18.310;2023-12-14T00:51:03;0.10;99.90
12386;DHT22;6257;57.634;18.310;2023-12-14T00:53:30;0.10;99.90
12386;DHT22;6257;57.634;18.310;2023-12-14T00:55:57;0.10;99.90
12386;DHT22;6257;57.634;18.310;2023-12-14T00:58:24;0.10;99.90
12386;DHT22;6257;57.634;18.310;2023-12-14T01:00:51;1.10;99.90
12386;DHT22;6257;57.634;18.310;2023-12-14T01:03:20;0.10;99.90
12386;DHT22;6257;57.634;18.310;2023-12-14T01:05:47;1.30;99.90
12386;DHT22;6257;57.634;18.310;2023-12-14T01:08:15;0.10;99.90
12386;DHT22;6257;57.634;18.310;2023-12-14T01:10:42;0.00;99.90
12386;DHT22;6257;57.634;18.310;2023-12-14T01:13:09;0.00;99.90
12386;DHT22;6257;57.634;18.310;2023-12-14T01:15:36;0.00;99.90
12386;DHT22;6257;57.634;18.310;2023-12-14T01:18:03;0.00;99.90
12386;DHT22;6257;57.634;18.310;2023-12-14T01:20:30;0.00;99.90
12386;DHT22;6257;57.634;18.310;2023-12-14T01:22:57;0.80;99.90
12386;DHT22;6257;57.634;18.310;2023-12-14T01:27:53;-0.10;99.90
12386;DHT22;6257;57.634;18.310;2023-12-14T01:30:20;-0.10;99.90
12386;DHT22;6257;57.634;18.310;2023-12-14T01:32:47;-0.10;99.90
12386;DHT22;6257;57.634;18.310;2023-12-14T01:35:14;1.20;99.90
12386;DHT22;6257;57.634;18.310;2023-12-14T01:37:41;-0.10;99.90
12386;DHT22;6257;57.634;18.310;2023-12-14T01:40:08;0.40;99.90
12386;DHT22;6257;57.634;18.310;2023-12-14T01:45:05;0.00;99.90
12386;DHT22;6257;57.634;18.310;2023-12-14T01:47:32;0.00;99.90
12386;DHT22;6257;57.634;18.310;2023-12-14T01:49:59;0.30;99.90
12386;DHT22;6257;57.634;18.310;2023-12-14T01:52:26;-0.10;99.90
12386;DHT22;6257;57.634;18.310;2023-12-14T01:54:53;1.30;99.90
12386;DHT22;6257;57.634;18.310;2023-12-14T01:57:20;-0.10;99.90
12386;DHT22;6257;57.634;18.310;2023-12-14T01:59:49;-0.10;99.90
12386;DHT22;6257;57.634;18.310;2023-12-14T02:02:16;-0.10;99.90
12386;DHT22;6257;57.634;18.310;2023-12-14T02:04:43;1.10;99.90
12386;DHT22;6257;57.634;18.310;2023-12-14T02:07:10;1.10;99.90
12386;DHT22;6257;57.634;18.310;2023-12-14T02:09:37;-0.10;99.90
12386;DHT22;6257;57.634;18.310;2023-12-14T02:12:05;-0.10;99.90
12386;DHT22;6257;57.634;18.310;2023-12-14T02:14:32;-0.10;99.90
12386;DHT22;6257;57.634;18.310;2023-12-14T02:17:00;1.20;99.90
12386;DHT22;6257;57.634;18.310;2023-12-14T02:19:27;-0.10;99.90
12386;DHT22;6257;57.634;18.310;2023-12-14T02:21:54;-0.10;99.90
12386;DHT22;6257;57.634;18.310;2023-12-14T02:26:50;-0.10;99.90
12386;DHT22;6257;57.634;18.310;2023-12-14T02:31:44;-0.10;99.90
12386;DHT22;6257;57.634;18.310;2023-12-14T02:34:13;-0.10;99.90
12386;DHT22;6257;57.634;18.310;2023-12-14T02:36:40;-0.10;99.90
12386;DHT22;6257;57.634;18.310;2023-12-14T02:39:07;1.30;99.90
12386;DHT22;6257;57.634;18.310;2023-12-14T02:44:02;-0.20;99.90
12386;DHT22;6257;57.634;18.310;2023-12-14T02:46:29;-0.20;99.90
12386;DHT22;6257;57.634;18.310;2023-12-14T02:48:56;0.70;99.90
12386;DHT22;6257;57.634;18.310;2023-12-14T02:51:23;-0.30;99.90
12386;DHT22;6257;57.634;18.310;2023-12-14T02:53:50;-0.20;99.90
12386;DHT22;6257;57.634;18.310;2023-12-14T02:56:17;0.40;99.90
12386;DHT22;6257;57.634;18.310;2023-12-14T02:58:45;-0.20;99.90
12386;DHT22;6257;57.634;18.310;2023-12-14T03:01:18;-0.20;99.90
12386;DHT22;6257;57.634;18.310;2023-12-14T03:03:46;1.10;99.90
12386;DHT22;6257;57.634;18.310;2023-12-14T03:06:13;-0.30;99.90
12386;DHT22;6257;57.634;18.310;2023-12-14T03:08:40;0.00;99.90
12386;DHT22;6257;57.634;18.310;2023-12-14T03:11:07;-0.30;99.90
12386;DHT22;6257;57.634;18.310;2023-12-14T03:13:34;-0.30;99.90
12386;DHT22;6257;57.634;18.310;2023-12-14T03:16:02;-0.30;99.90
12386;DHT22;6257;57.634;18.310;2023-12-14T03:18:29;-0.40;99.90
12386;DHT22;6257;57.634;18.310;2023-12-14T03:20:56;-0.40;99.90
12386;DHT22;6257;57.634;18.310;2023-12-14T03:23:23;-0.40;99.90
12386;DHT22;6257;57.634;18.310;2023-12-14T03:25:50;0.10;99.90
12386;DHT22;6257;57.634;18.310;2023-12-14T03:28:17;1.20;99.90
12386;DHT22;6257;57.634;18.310;2023-12-14T03:30:44;1.10;99.90
12386;DHT22;6257;57.634;18.310;2023-12-14T03:33:12;1.20;99.90
12386;DHT22;6257;57.634;18.310;2023-12-14T03:35:39;0.70;99.90
12386;DHT22;6257;57.634;18.310;2023-12-14T03:38:07;-0.30;99.90
12386;DHT22;6257;57.634;18.310;2023-12-14T03:40:34;1.10;99.90
12386;DHT22;6257;57.634;18.310;2023-12-14T03:43:01;-0.30;99.90
12386;DHT22;6257;57.634;18.310;2023-12-14T03:45:29;-0.20;99.90
12386;DHT22;6257;57.634;18.310;2023-12-14T03:47:56;-0.20;99.90
12386;DHT22;6257;57.634;18.310;2023-12-14T03:50:25;1.20;99.90
12386;DHT22;6257;57.634;18.310;2023-12-14T03:52:52;1.00;99.90
12386;DHT22;6257;57.634;18.310;2023-12-14T03:55:19;1.30;99.90
12386;DHT22;6257;57.634;18.310;2023-12-14T03:57:46;1.20;99.90
12386;DHT22;6257;57.634;18.310;2023-12-14T04:00:13;-0.20;99.90
12386;DHT22;6257;57.634;18.310;2023-12-14T04:02:40;-0.20;99.90
12386;DHT22;6257;57.634;18.310;2023-12-14T04:05:08;-0.20;99.90
12386;DHT22;6257;57.634;18.310;2023-12-14T04:07:37;-0.30;99.90
12386;DHT22;6257;57.634;18.310;2023-12-14T04:10:06;0.90;99.90
12386;DHT22;6257;57.634;18.310;2023-12-14T04:12:34;-0.30;99.90
12386;DHT22;6257;57.634;18.310;2023-12-14T04:15:01;-0.30;99.90
12386;DHT22;6257;57.634;18.310;2023-12-14T04:17:28;-0.30;99.90
12386;DHT22;6257;57.634;18.310;2023-12-14T04:19:55;1.10;99.90
12386;DHT22;6257;57.634;18.310;2023-12-14T04:22:22;1.10;99.90
12386;DHT22;6257;57.634;18.310;2023-12-14T04:24:50;0.00;99.90
12386;DHT22;6257;57.634;18.310;2023-12-14T04:27:17;-0.30;99.90
12386;DHT22;6257;57.634;18.310;2023-12-14T04:29:44;-0.30;99.90
12386;DHT22;6257;57.634;18.310;2023-12-14T04:32:11;-0.30;99.90
12386;DHT22;6257;57.634;18.310;2023-12-14T04:34:38;1.20;99.90
12386;DHT22;6257;57.634;18.310;2023-12-14T04:37:05;1.20;99.90
12386;DHT22;6257;57.634;18.310;2023-12-14T04:39:33;-0.30;99.90
12386;DHT22;6257;57.634;18.310;2023-12-14T04:42:01;3.00;99.90
12386;DHT22;6257;57.634;18.310;2023-12-14T04:44:29;-0.20;99.90
12386;DHT22;6257;57.634;18.310;2023-12-14T04:46:56;-0.20;99.90
12386;DHT22;6257;57.634;18.310;2023-12-14T04:49:23;0.40;99.90
12386;DHT22;6257;57.634;18.310;2023-12-14T04:51:50;0.30;99.90
12386;DHT22;6257;57.634;18.310;2023-12-14T04:54:17;-0.30;99.90
12386;DHT22;6257;57.634;18.310;2023-12-14T04:56:45;1.10;99.90
12386;DHT22;6257;57.634;18.310;2023-12-14T05:01:41;-0.30;99.90
12386;DHT22;6257;57.634;18.310;2023-12-14T05:04:08;1.30;99.90
12386;DHT22;6257;57.634;18.310;2023-12-14T05:06:35;-0.20;99.90
12386;DHT22;6257;57.634;18.310;2023-12-14T05:09:02;-0.20;99.90
12386;DHT22;6257;57.634;18.310;2023-12-14T05:11:31;-0.20;99.90
12386;DHT22;6257;57.634;18.310;2023-12-14T05:13:58;1.30;99.90
12386;DHT22;6257;57.634;18.310;2023-12-14T05:16:26;1.20;99.90
12386;DHT22;6257;57.634;18.310;2023-12-14T05:18:53;-0.20;99.90
12386;DHT22;6257;57.634;18.310;2023-12-14T05:21:20;0.90;99.90
12386;DHT22;6257;57.634;18.310;2023-12-14T05:23:47;1.10;99.90
12386;DHT22;6257;57.634;18.310;2023-12-14T05:26:14;-0.30;99.90
12386;DHT22;6257;57.634;18.310;2023-12-14T05:28:41;1.10;99.90
12386;DHT22;6257;57.634;18.310;2023-12-14T05:31:09;1.10;99.90
12386;DHT22;6257;57.634;18.310;2023-12-14T05:36:06;-0.30;99.90
12386;DHT22;6257;57.634;18.310;2023-12-14T05:38:36;-0.40;99.90
12386;DHT22;6257;57.634;18.310;2023-12-14T05:41:03;0.00;99.90
12386;DHT22;6257;57.634;18.310;2023-12-14T05:43:30;-0.40;99.90
12386;DHT22;6257;57.634;18.310;2023-12-14T05:45:57;-0.40;99.90
12386;DHT22;6257;57.634;18.310;2023-12-14T05:48:25;-0.40;99.90
12386;DHT22;6257;57.634;18.310;2023-12-14T05:50:56;1.10;99.90
12386;DHT22;6257;57.634;18.310;2023-12-14T05:53:23;-0.40;99.90
12386;DHT22;6257;57.634;18.310;2023-12-14T05:55:50;1.20;99.90
12386;DHT22;6257;57.634;18.310;2023-12-14T05:58:17;-0.50;99.90
12386;DHT22;6257;57.634;18.310;2023-12-14T06:00:46;-0.50;99.90
12386;DHT22;6257;57.634;18.310;2023-12-14T06:03:13;-0.50;99.90
12386;DHT22;6257;57.634;18.310;2023-12-14T06:05:40;-0.50;99.90
12386;DHT22;6257;57.634;18.310;2023-12-14T06:08:09;-0.50;99.90
12386;DHT22;6257;57.634;18.310;2023-12-14T06:10:36;-0.50;99.90
12386;DHT22;6257;57.634;18.310;2023-12-14T06:13:03;-0.20;99.90
12386;DHT22;6257;57.634;18.310;2023-12-14T06:15:30;0.50;99.90
12386;DHT22;6257;57.634;18.310;2023-12-14T06:17:57;-0.60;99.90
12386;DHT22;6257;57.634;18.310;2023-12-14T06:20:24;-0.70;99.90
12386;DHT22;6257;57.634;18.310;2023-12-14T06:22:52;-0.70;99.90
12386;DHT22;6257;57.634;18.310;2023-12-14T06:37:38;-0.80;99.90
12386;DHT22;6257;57.634;18.310;2023-12-14T06:52:25;-0.90;99.90
12386;DHT22;6257;57.634;18.310;2023-12-14T06:57:19;-1.00;99.90
12386;DHT22;6257;57.634;18.310;2023-12-14T07:04:44;-1.10;99.90
12386;DHT22;6257;57.634;18.310;2023-12-14T07:07:11;-1.10;99.90
12386;DHT22;6257;57.634;18.310;2023-12-14T07:09:38;-1.10;99.90
12386;DHT22;6257;57.634;18.310;2023-12-14T07:12:06;-1.10;99.90
12386;DHT22;6257;57.634;18.310;2023-12-14T07:14:33;-1.10;99.90
12386;DHT22;6257;57.634;18.310;2023-12-14T07:17:02;0.60;99.90
12386;DHT22;6257;57.634;18.310;2023-12-14T07:19:29;-1.20;99.90
12386;DHT22;6257;57.634;18.310;2023-12-14T07:21:56;-1.20;99.90
12386;DHT22;6257;57.634;18.310;2023-12-14T07:24:22;-1.30;99.90
12386;DHT22;6257;57.634;18.310;2023-12-14T07:26:49;-1.30;99.90
12386;DHT22;6257;57.634;18.310;2023-12-14T07:29:16;-1.40;99.90
12386;DHT22;6257;57.634;18.310;2023-12-14T07:31:43;-1.40;99.90
12386;DHT22;6257;57.634;18.310;2023-12-14T07:34:12;-1.40;99.90
12386;DHT22;6257;57.634;18.310;2023-12-14T07:36:39;-1.40;99.90
12386;DHT22;6257;57.634;18.310;2023-12-14T07:39:06;-1.60;99.90
12386;DHT22;6257;57.634;18.310;2023-12-14T07:41:34;0.00;99.90
12386;DHT22;6257;57.634;18.310;2023-12-14T07:44:01;-1.50;99.90
12386;DHT22;6257;57.634;18.310;2023-12-14T07:48:57;-1.50;99.90
12386;DHT22;6257;57.634;18.310;2023-12-14T07:53:53;-1.60;99.90
12386;DHT22;6257;57.634;18.310;2023-12-14T07:56:20;-1.60;99.90
12386;DHT22;6257;57.634;18.310;2023-12-14T07:58:51;-1.70;99.90
12386;DHT22;6257;57.634;18.310;2023-12-14T08:01:18;-1.70;99.90
12386;DHT22;6257;57.634;18.310;2023-12-14T08:03:46;-1.80;99.90
12386;DHT22;6257;57.634;18.310;2023-12-14T08:06:13;-1.70;99.90
12386;DHT22;6257;57.634;18.310;2023-12-14T08:08:41;-1.70;99.90
12386;DHT22;6257;57.634;18.310;2023-12-14T08:11:08;-1.80;99.90
12386;DHT22;6257;57.634;18.310;2023-12-14T08:13:35;-1.40;99.90
12386;DHT22;6257;57.634;18.310;2023-12-14T08:16:02;-1.80;99.90
12386;DHT22;6257;57.634;18.310;2023-12-14T08:18:29;-1.80;99.90
12386;DHT22;6257;57.634;18.310;2023-12-14T08:20:56;-0.70;99.90
12386;DHT22;6257;57.634;18.310;2023-12-14T08:23:23;-1.90;99.90
12386;DHT22;6257;57.634;18.310;2023-12-14T08:25:54;-1.80;99.90
12386;DHT22;6257;57.634;18.310;2023-12-14T08:28:22;-1.80;99.90
12386;DHT22;6257;57.634;18.310;2023-12-14T08:30:49;-1.80;99.90
12386;DHT22;6257;57.634;18.310;2023-12-14T08:33:16;-1.80;99.90
12386;DHT22;6257;57.634;18.310;2023-12-14T08:40:38;-1.80;99.90
12386;DHT22;6257;57.634;18.310;2023-12-14T08:43:07;-0.50;99.90
12386;DHT22;6257;57.634;18.310;2023-12-14T08:45:34;-1.80;99.90
12386;DHT22;6257;57.634;18.310;2023-12-14T08:48:01;-1.80;99.90
12386;DHT22;6257;57.634;18.310;2023-12-14T08:50:28;-1.90;99.90
12386;DHT22;6257;57.634;18.310;2023-12-14T08:52:55;-1.90;99.90
12386;DHT22;6257;57.634;18.310;2023-12-14T08:55:24;0.40;99.90
12386;DHT22;6257;57.634;18.310;2023-12-14T08:57:51;-1.00;99.90
12386;DHT22;6257;57.634;18.310;2023-12-14T09:00:19;-1.90;99.90
12386;DHT22;6257;57.634;18.310;2023-12-14T09:02:46;-1.90;99.90
12386;DHT22;6257;57.634;18.310;2023-12-14T09:05:13;-1.90;99.90
12386;DHT22;6257;57.634;18.310;2023-12-14T09:07:42;-1.90;99.90
12386;DHT22;6257;57.634;18.310;2023-12-14T09:10:09;-1.20;99.90
12386;DHT22;6257;57.634;18.310;2023-12-14T09:12:36;-1.90;99.90
12386;DHT22;6257;57.634;18.310;2023-12-14T09:15:04;-1.90;99.90
12386;DHT22;6257;57.634;18.310;2023-12-14T09:20:00;-1.90;99.90
12386;DHT22;6257;57.634;18.310;2023-12-14T09:22:30;-1.90;99.90
12386;DHT22;6257;57.634;18.310;2023-12-14T09:24:57;-1.90;99.90
12386;DHT22;6257;57.634;18.310;2023-12-14T09:27:24;-1.90;99.90
12386;DHT22;6257;57.634;18.310;2023-12-14T09:29:51;-1.90;99.90
12386;DHT22;6257;57.634;18.310;2023-12-14T09:32:18;-1.50;99.90
12386;DHT22;6257;57.634;18.310;2023-12-14T09:34:47;-1.90;99.90
12386;DHT22;6257;57.634;18.310;2023-12-14T09:37:14;-1.80;99.90
12386;DHT22;6257;57.634;18.310;2023-12-14T09:39:40;-1.80;99.90
12386;DHT22;6257;57.634;18.310;2023-12-14T09:42:08;-1.80;99.90
12386;DHT22;6257;57.634;18.310;2023-12-14T09:44:35;-1.80;99.90
12386;DHT22;6257;57.634;18.310;2023-12-14T09:47:04;-1.90;99.90
12386;DHT22;6257;57.634;18.310;2023-12-14T09:49:33;-1.80;99.90
12386;DHT22;6257;57.634;18.310;2023-12-14T09:52:02;-1.80;99.90
12386;DHT22;6257;57.634;18.310;2023-12-14T09:54:29;-1.80;99.90
12386;DHT22;6257;57.634;18.310;2023-12-14T09:56:56;-1.80;99.90
12386;DHT22;6257;57.634;18.310;2023-12-14T09:59:23;-1.80;99.90
12386;DHT22;6257;57.634;18.310;2023-12-14T10:01:50;-1.80;99.90
12386;DHT22;6257;57.634;18.310;2023-12-14T10:04:18;-1.80;99.90
12386;DHT22;6257;57.634;18.310;2023-12-14T10:06:47;-1.80;99.90
12386;DHT22;6257;57.634;18.310;2023-12-14T10:14:18;-1.80;99.90
12386;DHT22;6257;57.634;18.310;2023-12-14T10:16:48;-1.80;99.90
12386;DHT22;6257;57.634;18.310;2023-12-14T10:19:17;-1.90;99.90
12386;DHT22;6257;57.634;18.310;2023-12-14T10:21:46;-1.80;99.90
12386;DHT22;6257;57.634;18.310;2023-12-14T10:24:15;-1.80;99.90
12386;DHT22;6257;57.634;18.310;2023-12-14T10:26:42;-1.90;99.90
12386;DHT22;6257;57.634;18.310;2023-12-14T10:29:11;-0.80;99.90
12386;DHT22;6257;57.634;18.310;2023-12-14T10:31:38;-1.90;99.90
12386;DHT22;6257;57.634;18.310;2023-12-14T10:34:05;-1.90;99.90
12386;DHT22;6257;57.634;18.310;2023-12-14T10:36:32;-1.90;99.90
12386;DHT22;6257;57.634;18.310;2023-12-14T10:39:00;0.00;99.90
12386;DHT22;6257;57.634;18.310;2023-12-14T10:41:31;-0.40;99.90
12386;DHT22;6257;57.634;18.310;2023-12-14T10:44:00;-2.00;99.90
12386;DHT22;6257;57.634;18.310;2023-12-14T10:46:27;-2.00;99.90
12386;DHT22;6257;57.634;18.310;2023-12-14T10:48:55;-2.00;99.90
12386;DHT22;6257;57.634;18.310;2023-12-14T10:51:24;-1.00;99.90
12386;DHT22;6257;57.634;18.310;2023-12-14T10:53:52;-2.00;99.90
12386;DHT22;6257;57.634;18.310;2023-12-14T10:56:20;-1.00;99.90
12386;DHT22;6257;57.634;18.310;2023-12-14T10:58:51;-0.60;99.90
12386;DHT22;6257;57.634;18.310;2023-12-14T11:01:20;-0.50;99.90
12386;DHT22;6257;57.634;18.310;2023-12-14T11:03:48;-0.90;99.90
12386;DHT22;6257;57.634;18.310;2023-12-14T11:06:27;-0.70;99.90
12386;DHT22;6257;57.634;18.310;2023-12-14T11:08:57;-2.10;99.90
12386;DHT22;6257;57.634;18.310;2023-12-14T11:11:28;-0.60;99.90
12386;DHT22;6257;57.634;18.310;2023-12-14T11:13:56;-2.10;99.90
12386;DHT22;6257;57.634;18.310;2023-12-14T11:16:26;-2.10;99.90
12386;DHT22;6257;57.634;18.310;2023-12-14T11:19:26;-2.10;99.90
12386;DHT22;6257;57.634;18.310;2023-12-14T11:22:10;-2.10;99.90
12386;DHT22;6257;57.634;18.310;2023-12-14T11:24:42;-2.10;99.90
12386;DHT22;6257;57.634;18.310;2023-12-14T11:27:11;-2.20;99.90
12386;DHT22;6257;57.634;18.310;2023-12-14T11:32:07;-2.20;99.90
12386;DHT22;6257;57.634;18.310;2023-12-14T11:34:35;-0.80;99.90
12386;DHT22;6257;57.634;18.310;2023-12-14T11:37:02;-2.20;99.90
12386;DHT22;6257;57.634;18.310;2023-12-14T11:39:32;-2.20;99.90
12386;DHT22;6257;57.634;18.310;2023-12-14T11:42:00;-2.10;99.90
12386;DHT22;6257;57.634;18.310;2023-12-14T11:44:27;-1.10;99.90
12386;DHT22;6257;57.634;18.310;2023-12-14T11:49:24;-2.20;99.90
12386;DHT22;6257;57.634;18.310;2023-12-14T11:51:52;-1.20;99.90
12386;DHT22;6257;57.634;18.310;2023-12-14T11:54:19;-4.30;99.90
12386;DHT22;6257;57.634;18.310;2023-12-14T11:56:47;-2.20;99.90
12386;DHT22;6257;57.634;18.310;2023-12-14T11:59:15;-2.20;99.90
12386;DHT22;6257;57.634;18.310;2023-12-14T12:01:55;-2.20;99.90
12386;DHT22;6257;57.634;18.310;2023-12-14T12:04:23;-1.00;99.90
12386;DHT22;6257;57.634;18.310;2023-12-14T12:06:59;-2.30;99.90
12386;DHT22;6257;57.634;18.310;2023-12-14T12:09:44;-1.00;99.90
12386;DHT22;6257;57.634;18.310;2023-12-14T12:12:12;-2.30;99.90
12386;DHT22;6257;57.634;18.310;2023-12-14T12:14:40;-0.70;99.90
12386;DHT22;6257;57.634;18.310;2023-12-14T12:17:09;-2.40;99.90
12386;DHT22;6257;57.634;18.310;2023-12-14T12:19:37;-2.40;99.90
12386;DHT22;6257;57.634;18.310;2023-12-14T12:22:04;-2.40;99.90
12386;DHT22;6257;57.634;18.310;2023-12-14T12:24:31;-2.40;99.90
12386;DHT22;6257;57.634;18.310;2023-12-14T12:26:58;-1.10;99.90
12386;DHT22;6257;57.634;18.310;2023-12-14T12:29:25;-2.30;99.90
12386;DHT22;6257;57.634;18.310;2023-12-14T12:34:21;-2.40;99.90
12386;DHT22;6257;57.634;18.310;2023-12-14T12:36:48;-2.40;99.90
12386;DHT22;6257;57.634;18.310;2023-12-14T12:39:15;-1.90;99.90
12386;DHT22;6257;57.634;18.310;2023-12-14T12:41:42;-2.40;99.90
12386;DHT22;6257;57.634;18.310;2023-12-14T12:44:09;-2.40;99.90
12386;DHT22;6257;57.634;18.310;2023-12-14T12:46:36;-2.50;99.90
12386;DHT22;6257;57.634;18.310;2023-12-14T12:49:04;-2.50;99.90
12386;DHT22;6257;57.634;18.310;2023-12-14T12:51:33;-2.50;99.90
12386;DHT22;6257;57.634;18.310;2023-12-14T12:54:00;-2.50;99.90
12386;DHT22;6257;57.634;18.310;2023-12-14T12:58:56;-2.40;99.90
12386;DHT22;6257;57.634;18.310;2023-12-14T13:01:23;-2.50;99.90
12386;DHT22;6257;57.634;18.310;2023-12-14T13:03:53;-2.10;99.90
12386;DHT22;6257;57.634;18.310;2023-12-14T13:06:23;-2.50;99.90
12386;DHT22;6257;57.634;18.310;2023-12-14T13:11:18;-2.50;99.90
12386;DHT22;6257;57.634;18.310;2023-12-14T13:13:45;-2.50;99.90
12386;DHT22;6257;57.634;18.310;2023-12-14T13:16:13;-2.50;99.90
12386;DHT22;6257;57.634;18.310;2023-12-14T13:18:42;-2.50;99.90
12386;DHT22;6257;57.634;18.310;2023-12-14T13:21:09;-2.60;99.90
12386;DHT22;6257;57.634;18.310;2023-12-14T13:23:36;-2.60;99.90
12386;DHT22;6257;57.634;18.310;2023-12-14T13:26:05;-2.60;99.90
12386;DHT22;6257;57.634;18.310;2023-12-14T13:28:32;-2.60;99.90
12386;DHT22;6257;57.634;18.310;2023-12-14T13:30:59;-2.50;99.90
12386;DHT22;6257;57.634;18.310;2023-12-14T13:33:26;-2.50;99.90
12386;DHT22;6257;57.634;18.310;2023-12-14T13:35:53;-2.50;99.90
12386;DHT22;6257;57.634;18.310;2023-12-14T13:38:20;-2.60;99.90
12386;DHT22;6257;57.634;18.310;2023-12-14T13:40:47;-2.60;99.90
12386;DHT22;6257;57.634;18.310;2023-12-14T13:43:15;-2.60;99.90
12386;DHT22;6257;57.634;18.310;2023-12-14T13:45:42;-2.60;99.90
12386;DHT22;6257;57.634;18.310;2023-12-14T13:48:09;-2.60;99.90
12386;DHT22;6257;57.634;18.310;2023-12-14T13:50:36;-2.60;99.90
12386;DHT22;6257;57.634;18.310;2023-12-14T13:53:03;-2.70;99.90
12386;DHT22;6257;57.634;18.310;2023-12-14T13:55:31;-2.70;99.90
12386;DHT22;6257;57.634;18.310;2023-12-14T13:57:58;-2.70;99.90
12386;DHT22;6257;57.634;18.310;2023-12-14T14:02:55;-2.70;99.90
12386;DHT22;6257;57.634;18.310;2023-12-14T14:05:22;-2.70;99.90
12386;DHT22;6257;57.634;18.310;2023-12-14T14:07:49;-2.70;99.90
12386;DHT22;6257;57.634;18.310;2023-12-14T14:10:17;-1.80;99.90
12386;DHT22;6257;57.634;18.310;2023-12-14T14:12:44;-2.70;99.90
12386;DHT22;6257;57.634;18.310;2023-12-14T14:15:12;-2.70;99.90
12386;DHT22;6257;57.634;18.310;2023-12-14T14:17:40;-2.70;99.90
12386;DHT22;6257;57.634;18.310;2023-12-14T14:20:07;-2.70;99.90
12386;DHT22;6257;57.634;18.310;2023-12-14T14:22:35;-2.70;99.90
12386;DHT22;6257;57.634;18.310;2023-12-14T14:25:03;-2.70;99.90
12386;DHT22;6257;57.634;18.310;2023-12-14T14:27:31;-2.60;99.90
12386;DHT22;6257;57.634;18.310;2023-12-14T14:29:58;-2.70;99.90
12386;DHT22;6257;57.634;18.310;2023-12-14T14:32:26;-2.70;99.90
12386;DHT22;6257;57.634;18.310;2023-12-14T14:34:54;-2.80;99.90
12386;DHT22;6257;57.634;18.310;2023-12-14T14:37:23;-2.80;99.90
12386;DHT22;6257;57.634;18.310;2023-12-14T14:39:51;-2.70;99.90
12386;DHT22;6257;57.634;18.310;2023-12-14T14:42:18;-2.70;99.90
12386;DHT22;6257;57.634;18.310;2023-12-14T14:44:45;-2.70;99.90
12386;DHT22;6257;57.634;18.310;2023-12-14T14:47:12;-2.60;99.90
12386;DHT22;6257;57.634;18.310;2023-12-14T14:49:39;-2.60;99.90
12386;DHT22;6257;57.634;18.310;2023-12-14T14:52:07;-2.70;99.90
12386;DHT22;6257;57.634;18.310;2023-12-14T14:54:34;-2.60;99.90
12386;DHT22;6257;57.634;18.310;2023-12-14T14:57:01;-2.60;99.90
12386;DHT22;6257;57.634;18.310;2023-12-14T14:59:28;-2.60;99.90
12386;DHT22;6257;57.634;18.310;2023-12-14T15:01:56;-1.90;99.90
12386;DHT22;6257;57.634;18.310;2023-12-14T15:04:25;-2.60;99.90
12386;DHT22;6257;57.634;18.310;2023-12-14T15:06:52;-2.60;99.90
12386;DHT22;6257;57.634;18.310;2023-12-14T15:11:48;-2.60;99.90
12386;DHT22;6257;57.634;18.310;2023-12-14T15:14:15;-1.10;99.90
12386;DHT22;6257;57.634;18.310;2023-12-14T15:16:42;-2.60;99.90
12386;DHT22;6257;57.634;18.310;2023-12-14T15:19:09;-2.60;99.90
12386;DHT22;6257;57.634;18.310;2023-12-14T15:21:36;-2.70;99.90
12386;DHT22;6257;57.634;18.310;2023-12-14T15:24:04;-2.70;99.90
12386;DHT22;6257;57.634;18.310;2023-12-14T15:26:32;-2.80;99.90
12386;DHT22;6257;57.634;18.310;2023-12-14T15:29:00;-2.60;99.90
12386;DHT22;6257;57.634;18.310;2023-12-14T15:31:27;-2.60;99.90
12386;DHT22;6257;57.634;18.310;2023-12-14T15:33:54;-2.60;99.90
12386;DHT22;6257;57.634;18.310;2023-12-14T15:36:22;-2.60;99.90
12386;DHT22;6257;57.634;18.310;2023-12-14T15:38:49;-1.50;99.90
12386;DHT22;6257;57.634;18.310;2023-12-14T15:43:44;-2.60;99.90
12386;DHT22;6257;57.634;18.310;2023-12-14T15:48:39;-2.60;99.90
12386;DHT22;6257;57.634;18.310;2023-12-14T15:51:07;-2.50;99.90
12386;DHT22;6257;57.634;18.310;2023-12-14T15:53:35;-2.50;99.90
12386;DHT22;6257;57.634;18.310;2023-12-14T15:56:03;-2.50;99.90
12386;DHT22;6257;57.634;18.310;2023-12-14T15:58:30;-2.60;99.90
12386;DHT22;6257;57.634;18.310;2023-12-14T16:03:25;-2.60;99.90
12386;DHT22;6257;57.634;18.310;2023-12-14T16:05:52;-2.60;99.90
12386;DHT22;6257;57.634;18.310;2023-12-14T16:08:19;-2.60;99.90
12386;DHT22;6257;57.634;18.310;2023-12-14T16:10:46;-2.60;99.90
12386;DHT22;6257;57.634;18.310;2023-12-14T16:13:16;-2.50;99.90
12386;DHT22;6257;57.634;18.310;2023-12-14T16:15:43;-2.60;99.90
12386;DHT22;6257;57.634;18.310;2023-12-14T16:18:11;-2.60;99.90
12386;DHT22;6257;57.634;18.310;2023-12-14T16:20:39;-2.60;99.90
12386;DHT22;6257;57.634;18.310;2023-12-14T16:23:06;-2.50;99.90
12386;DHT22;6257;57.634;18.310;2023-12-14T16:25:33;-2.50;99.90
12386;DHT22;6257;57.634;18.310;2023-12-14T16:28:00;-2.50;99.90
12386;DHT22;6257;57.634;18.310;2023-12-14T16:30:27;-2.60;99.90
12386;DHT22;6257;57.634;18.310;2023-12-14T16:32:54;-2.60;99.90
12386;DHT22;6257;57.634;18.310;2023-12-14T16:35:23;-2.60;99.90
12386;DHT22;6257;57.634;18.310;2023-12-14T16:37:50;-2.60;99.90
12386;DHT22;6257;57.634;18.310;2023-12-14T16:40:16;-2.50;99.90
12386;DHT22;6257;57.634;18.310;2023-12-14T16:42:43;-2.50;99.90
12386;DHT22;6257;57.634;18.310;2023-12-14T16:45:10;-2.50;99.90
12386;DHT22;6257;57.634;18.310;2023-12-14T16:47:37;-3.30;99.90
12386;DHT22;6257;57.634;18.310;2023-12-14T16:50:05;-2.10;99.90
12386;DHT22;6257;57.634;18.310;2023-12-14T16:52:36;-2.50;99.90
12386;DHT22;6257;57.634;18.310;2023-12-14T16:55:03;-2.50;99.90
12386;DHT22;6257;57.634;18.310;2023-12-14T16:57:33;-2.50;99.90
12386;DHT22;6257;57.634;18.310;2023-12-14T17:00:02;-2.50;99.90
12386;DHT22;6257;57.634;18.310;2023-12-14T17:02:30;-2.50;99.90
12386;DHT22;6257;57.634;18.310;2023-12-14T17:04:58;-2.60;99.90
12386;DHT22;6257;57.634;18.310;2023-12-14T17:07:26;-2.60;99.90
12386;DHT22;6257;57.634;18.310;2023-12-14T17:12:21;-2.50;99.90
12386;DHT22;6257;57.634;18.310;2023-12-14T17:14:48;-2.60;99.90